createdAt,value
2017-12-11T00:01:36.687Z,4.35
2017-12-11T00:04:11.325Z,4.38
2017-12-11T00:06:45.823Z,4.43
2017-12-11T00:09:20.302Z,4.42
2017-12-11T00:11:54.737Z,4.33
2017-12-11T00:14:28.926Z,4.30
2017-12-11T00:17:03.354Z,4.47
2017-12-11T00:19:37.938Z,4.40
2017-12-11T00:22:11.702Z,4.43
2017-12-11T00:24:47.690Z,4.38
2017-12-11T00:27:22.119Z,4.40
2017-12-11T00:29:56.694Z,4.33
2017-12-11T00:32:31.198Z,4.35
2017-12-11T00:35:06.737Z,4.39
2017-12-11T00:37:41.140Z,4.21
2017-12-11T00:40:15.567Z,4.43
2017-12-11T00:42:49.876Z,4.52
2017-12-11T00:45:23.917Z,4.36
2017-12-11T00:47:58.088Z,4.41
2017-12-11T00:50:32.537Z,4.48
2017-12-11T00:53:07.006Z,4.55
2017-12-11T00:55:41.395Z,4.52
2017-12-11T00:58:15.923Z,4.51
2017-12-11T01:00:50.546Z,4.52
2017-12-11T01:03:24.709Z,4.51
2017-12-11T01:05:58.748Z,4.54
2017-12-11T01:08:33.121Z,4.56
2017-12-11T01:11:07.514Z,4.73
2017-12-11T01:13:41.995Z,4.67
2017-12-11T01:16:16.701Z,4.60
2017-12-11T01:18:51.086Z,4.70
2017-12-11T01:21:25.506Z,4.61
2017-12-11T01:24:01.027Z,4.51
2017-12-11T01:26:35.513Z,4.54
2017-12-11T01:29:09.562Z,4.61
2017-12-11T01:31:43.948Z,4.58
2017-12-11T01:34:18.427Z,4.64
2017-12-11T01:36:52.886Z,4.56
2017-12-11T01:39:27.447Z,4.67
2017-12-11T01:42:01.629Z,4.69
2017-12-11T01:44:35.849Z,4.65
2017-12-11T01:47:10.221Z,4.58
2017-12-11T01:49:44.586Z,4.62
2017-12-11T01:52:18.714Z,4.60
2017-12-11T01:54:53.077Z,4.77
2017-12-11T01:57:27.500Z,4.77
2017-12-11T02:00:01.966Z,4.78
2017-12-11T02:02:36.582Z,4.86
2017-12-11T02:05:10.994Z,4.87
2017-12-11T02:07:45.375Z,4.91
2017-12-11T02:10:19.790Z,4.94
2017-12-11T02:12:53.947Z,4.90
2017-12-11T02:15:28.305Z,4.96
2017-12-11T02:18:02.817Z,4.88
2017-12-11T02:20:37.257Z,4.96
2017-12-11T02:23:11.302Z,4.98
2017-12-11T02:25:45.534Z,4.98
2017-12-11T02:28:19.670Z,5.01
2017-12-11T02:30:54.058Z,4.92
2017-12-11T02:33:28.147Z,4.92
2017-12-11T02:36:02.362Z,4.82
2017-12-11T02:38:36.860Z,4.81
2017-12-11T02:41:10.918Z,4.75
2017-12-11T02:43:45.116Z,4.85
2017-12-11T02:46:19.478Z,4.88
2017-12-11T02:48:53.700Z,5.03
2017-12-11T02:51:28.182Z,5.14
2017-12-11T02:54:02.415Z,5.05
2017-12-11T02:56:36.766Z,5.03
2017-12-11T02:59:11.319Z,4.96
2017-12-11T03:01:45.756Z,4.97
2017-12-11T03:04:20.286Z,5.01
2017-12-11T03:06:54.682Z,5.03
2017-12-11T03:09:29.038Z,5.02
2017-12-11T03:12:03.451Z,4.94
2017-12-11T03:14:38.049Z,4.89
2017-12-11T03:17:12.517Z,4.81
2017-12-11T03:19:46.930Z,4.82
2017-12-11T03:22:21.327Z,4.81
2017-12-11T03:24:55.902Z,4.87
2017-12-11T03:27:30.266Z,4.90
2017-12-11T03:30:11.091Z,4.92
2017-12-11T03:32:45.266Z,4.94
2017-12-11T03:35:19.671Z,5.00
2017-12-11T03:37:54.098Z,5.01
2017-12-11T03:40:28.441Z,5.07
2017-12-11T03:43:02.288Z,5.10
2017-12-11T03:45:36.842Z,5.12
2017-12-11T03:48:10.985Z,5.23
2017-12-11T03:50:45.566Z,5.21
2017-12-11T03:53:20.142Z,5.17
2017-12-11T03:55:54.582Z,5.15
2017-12-11T03:58:29.061Z,5.22
2017-12-11T04:01:04.132Z,5.17
2017-12-11T04:03:38.634Z,5.24
2017-12-11T04:06:13.077Z,5.35
2017-12-11T04:08:47.559Z,5.26
2017-12-11T04:11:21.970Z,5.38
2017-12-11T04:13:56.537Z,5.36
2017-12-11T04:16:30.918Z,5.41
2017-12-11T04:19:05.478Z,5.29
2017-12-11T04:21:39.884Z,5.26
2017-12-11T04:24:14.253Z,5.26
2017-12-11T04:26:48.960Z,5.24
2017-12-11T04:29:23.522Z,5.13
2017-12-11T04:31:57.994Z,5.27
2017-12-11T04:34:32.492Z,5.14
2017-12-11T04:37:06.891Z,5.23
2017-12-11T04:39:41.407Z,5.16
2017-12-11T04:42:15.774Z,5.09
2017-12-11T04:44:50.298Z,4.75
2017-12-11T04:47:24.645Z,5.24
2017-12-11T04:49:59.313Z,5.13
2017-12-11T04:52:34.570Z,5.19
2017-12-11T04:55:09.174Z,5.21
2017-12-11T04:57:43.689Z,5.22
2017-12-11T05:00:18.291Z,5.14
2017-12-11T05:02:52.858Z,5.25
2017-12-11T05:05:26.962Z,5.33
2017-12-11T05:08:01.381Z,5.25
2017-12-11T05:10:35.762Z,5.27
2017-12-11T05:13:10.290Z,5.27
2017-12-11T05:15:45.517Z,5.28
2017-12-11T05:18:19.968Z,5.25
2017-12-11T05:20:54.667Z,5.34
2017-12-11T05:23:29.147Z,5.40
2017-12-11T05:26:03.594Z,5.37
2017-12-11T05:28:38.085Z,5.42
2017-12-11T05:31:12.441Z,5.38
2017-12-11T05:33:46.967Z,5.31
2017-12-11T05:36:21.411Z,5.22
2017-12-11T05:38:55.957Z,5.21
2017-12-11T05:41:30.417Z,5.19
2017-12-11T05:44:04.965Z,5.21
2017-12-11T05:46:39.407Z,5.18
2017-12-11T05:49:13.831Z,5.10
2017-12-11T05:51:48.262Z,5.31
2017-12-11T05:54:22.841Z,5.33
2017-12-11T05:56:57.278Z,5.35
2017-12-11T05:59:32.744Z,5.32
2017-12-11T06:02:07.089Z,5.28
2017-12-11T06:04:42.678Z,5.36
2017-12-11T06:07:17.254Z,5.35
2017-12-11T06:09:51.670Z,5.36
2017-12-11T06:12:26.124Z,5.29
2017-12-11T06:15:00.626Z,5.38
2017-12-11T06:17:35.039Z,5.40
2017-12-11T06:20:10.137Z,5.37
2017-12-11T06:22:44.482Z,5.30
2017-12-11T06:25:18.950Z,5.41
2017-12-11T06:27:53.395Z,5.48
2017-12-11T06:30:27.734Z,5.59
2017-12-11T06:33:02.306Z,5.64
2017-12-11T06:35:36.905Z,5.64
2017-12-11T06:38:11.489Z,5.68
2017-12-11T06:40:45.918Z,5.80
2017-12-11T06:43:20.429Z,5.82
2017-12-11T06:45:54.922Z,5.92
2017-12-11T06:48:29.410Z,5.95
2017-12-11T06:51:03.781Z,5.97
2017-12-11T06:53:38.180Z,6.03
2017-12-11T06:56:12.616Z,6.09
2017-12-11T06:58:47.085Z,6.17
2017-12-11T07:01:21.509Z,6.23
2017-12-11T07:03:56.026Z,6.28
2017-12-11T07:06:30.841Z,6.34
2017-12-11T07:09:04.864Z,6.36
2017-12-11T07:11:39.607Z,6.37
2017-12-11T07:14:14.029Z,6.52
2017-12-11T07:16:48.422Z,6.53
2017-12-11T07:19:22.957Z,6.58
2017-12-11T07:21:57.370Z,6.60
2017-12-11T07:24:31.864Z,6.63
2017-12-11T07:27:06.262Z,6.54
2017-12-11T07:29:40.566Z,6.55
2017-12-11T07:32:14.954Z,6.59
2017-12-11T07:34:49.330Z,6.60
2017-12-11T07:37:23.698Z,6.66
2017-12-11T07:39:58.215Z,6.65
2017-12-11T07:42:32.634Z,6.68
2017-12-11T07:45:14.771Z,6.74
2017-12-11T07:47:49.197Z,6.82
2017-12-11T07:50:23.651Z,6.89
2017-12-11T07:52:58.086Z,6.91
2017-12-11T07:55:32.535Z,7.01
2017-12-11T07:58:07.563Z,6.97
2017-12-11T08:00:42.124Z,6.94
2017-12-11T08:03:16.488Z,7.00
2017-12-11T08:05:50.915Z,7.02
2017-12-11T08:08:28.811Z,6.89
2017-12-11T08:11:03.343Z,7.25
2017-12-11T08:13:37.813Z,7.29
2017-12-11T08:16:12.221Z,7.34
2017-12-11T08:18:46.777Z,7.37
2017-12-11T08:21:21.186Z,7.37
2017-12-11T08:23:55.702Z,7.41
2017-12-11T08:26:30.082Z,7.47
2017-12-11T08:29:04.566Z,7.56
2017-12-11T08:31:38.942Z,7.67
2017-12-11T08:34:13.344Z,7.73
2017-12-11T08:36:47.698Z,7.82
2017-12-11T08:39:22.952Z,7.93
2017-12-11T08:41:57.446Z,8.07
2017-12-11T08:44:31.934Z,8.19
2017-12-11T08:47:06.335Z,8.29
2017-12-11T08:49:40.490Z,8.40
2017-12-11T08:52:14.988Z,8.49
2017-12-11T08:54:49.338Z,8.59
2017-12-11T08:57:23.882Z,8.61
2017-12-11T08:59:58.254Z,8.68
2017-12-11T09:02:32.642Z,8.70
2017-12-11T09:05:08.486Z,8.81
2017-12-11T09:07:42.958Z,8.81
2017-12-11T09:10:17.436Z,8.84
2017-12-11T09:12:52.026Z,8.78
2017-12-11T09:15:26.452Z,8.76
2017-12-11T09:18:00.948Z,8.73
2017-12-11T09:20:35.826Z,8.72
2017-12-11T09:23:10.455Z,8.72
2017-12-11T09:25:44.998Z,8.64
2017-12-11T09:28:19.576Z,8.68
2017-12-11T09:30:53.982Z,8.63
2017-12-11T09:33:28.598Z,8.68
2017-12-11T09:36:02.946Z,8.71
2017-12-11T09:38:37.514Z,8.75
2017-12-11T09:41:11.938Z,8.80
2017-12-11T09:43:47.457Z,8.86
2017-12-11T09:46:21.926Z,8.94
2017-12-11T09:48:56.370Z,9.00
2017-12-11T09:51:31.198Z,9.06
2017-12-11T09:54:05.759Z,9.10
2017-12-11T09:56:40.170Z,9.12
2017-12-11T09:59:15.467Z,9.15
2017-12-11T10:01:50.949Z,9.21
2017-12-11T10:04:25.746Z,9.24
2017-12-11T10:07:00.218Z,9.37
2017-12-11T10:09:34.990Z,9.52
2017-12-11T10:12:09.386Z,9.56
2017-12-11T10:14:43.895Z,9.58
2017-12-11T10:17:18.390Z,9.56
2017-12-11T10:19:54.423Z,9.56
2017-12-11T10:22:28.973Z,9.54
2017-12-11T10:25:06.978Z,9.55
2017-12-11T10:27:41.750Z,9.60
2017-12-11T10:30:16.372Z,9.67
2017-12-11T10:32:50.921Z,9.80
2017-12-11T10:35:25.290Z,9.78
2017-12-11T10:38:00.130Z,9.84
2017-12-11T10:40:35.505Z,9.85
2017-12-11T10:43:10.562Z,9.85
2017-12-11T10:45:45.394Z,9.84
2017-12-11T10:48:19.858Z,9.80
2017-12-11T10:50:54.200Z,9.77
2017-12-11T10:53:28.455Z,9.75
2017-12-11T10:56:02.942Z,9.75
2017-12-11T10:58:37.493Z,9.78
2017-12-11T11:01:11.929Z,9.74
2017-12-11T11:03:46.398Z,9.70
2017-12-11T11:06:20.765Z,9.75
2017-12-11T11:08:54.911Z,9.82
2017-12-11T11:11:29.382Z,9.84
2017-12-11T11:14:03.934Z,9.91
2017-12-11T11:16:38.405Z,9.93
2017-12-11T11:19:12.979Z,9.94
2017-12-11T11:21:47.369Z,9.93
2017-12-11T11:24:21.973Z,9.69
2017-12-11T11:26:56.397Z,9.94
2017-12-11T11:29:30.951Z,9.92
2017-12-11T11:32:06.138Z,9.91
2017-12-11T11:34:40.558Z,9.85
2017-12-11T11:37:15.741Z,9.80
2017-12-11T11:39:51.018Z,9.79
2017-12-11T11:42:25.396Z,9.88
2017-12-11T11:44:59.902Z,9.88
2017-12-11T11:47:34.303Z,9.85
2017-12-11T11:50:08.905Z,9.87
2017-12-11T11:52:43.550Z,9.85
2017-12-11T11:55:18.028Z,9.84
2017-12-11T11:57:52.259Z,9.88
2017-12-11T12:00:26.730Z,9.85
2017-12-11T12:03:01.253Z,9.75
2017-12-11T12:05:35.676Z,9.87
2017-12-11T12:08:10.969Z,9.87
2017-12-11T12:10:45.482Z,9.88
2017-12-11T12:13:19.951Z,9.90
2017-12-11T12:15:54.361Z,9.90
2017-12-11T12:18:29.686Z,9.94
2017-12-11T12:21:05.041Z,9.98
2017-12-11T12:23:39.380Z,10.04
2017-12-11T12:26:13.853Z,10.11
2017-12-11T12:28:48.382Z,10.14
2017-12-11T12:31:22.754Z,10.18
2017-12-11T12:33:57.367Z,10.06
2017-12-11T12:36:31.722Z,10.20
2017-12-11T12:39:05.573Z,10.16
2017-12-11T12:41:39.955Z,10.24
2017-12-11T12:44:15.042Z,10.28
2017-12-11T12:46:49.537Z,10.32
2017-12-11T12:49:24.196Z,10.38
2017-12-11T12:51:58.770Z,10.41
2017-12-11T12:54:33.253Z,10.39
2017-12-11T12:57:07.687Z,10.49
2017-12-11T12:59:42.205Z,10.54
2017-12-11T13:02:16.593Z,10.52
2017-12-11T13:04:51.118Z,10.59
2017-12-11T13:07:25.646Z,10.67
2017-12-11T13:10:00.017Z,-142.93
2017-12-11T13:12:34.517Z,-142.93
2017-12-11T13:15:08.898Z,-142.93
2017-12-11T13:17:43.413Z,-142.93
2017-12-11T13:20:18.125Z,10.81
2017-12-11T13:22:52.647Z,10.80
2017-12-11T13:25:27.034Z,10.85
2017-12-11T13:28:01.552Z,10.87
2017-12-11T13:30:36.003Z,10.70
2017-12-11T13:33:10.530Z,10.79
2017-12-11T13:35:44.986Z,10.90
2017-12-11T13:38:19.563Z,10.94
2017-12-11T13:40:54.202Z,10.95
2017-12-11T13:43:28.777Z,-142.93
2017-12-11T13:46:03.198Z,-142.93
2017-12-11T13:48:37.611Z,-142.93
2017-12-11T13:51:12.058Z,-142.93
2017-12-11T13:53:46.449Z,-142.93
2017-12-11T13:56:20.846Z,-142.93
2017-12-11T13:58:55.333Z,-142.93
2017-12-11T14:01:30.058Z,-142.93
2017-12-11T14:04:04.526Z,-142.93
2017-12-11T14:06:40.238Z,-142.93
2017-12-11T14:09:15.612Z,-142.93
2017-12-11T14:11:50.109Z,-142.93
2017-12-11T14:14:24.966Z,-142.93
2017-12-11T14:16:59.409Z,-142.93
2017-12-11T14:19:33.974Z,-142.93
2017-12-11T14:22:08.354Z,-142.93
2017-12-11T14:24:42.768Z,-142.93
2017-12-11T14:27:17.669Z,-142.93
2017-12-11T14:29:52.122Z,-142.93
2017-12-11T14:32:26.512Z,-142.93
2017-12-11T14:35:00.762Z,-142.93
2017-12-11T14:37:35.306Z,-142.93
2017-12-11T14:40:10.760Z,-142.93
2017-12-11T14:42:45.162Z,-142.93
2017-12-11T14:45:23.423Z,-142.93
2017-12-11T14:47:57.998Z,-142.93
2017-12-11T14:50:33.629Z,-142.93
2017-12-11T14:53:08.059Z,-142.93
2017-12-11T14:55:42.573Z,-142.93
2017-12-11T14:58:17.934Z,-142.93
2017-12-11T15:00:52.521Z,-142.93
2017-12-11T15:03:27.701Z,-142.93
2017-12-11T15:06:02.468Z,-142.93
2017-12-11T15:08:36.970Z,-142.93
2017-12-11T15:11:11.421Z,-142.93
2017-12-11T15:13:45.886Z,-142.93
2017-12-11T15:16:20.248Z,-142.93
2017-12-11T15:18:54.627Z,-142.93
2017-12-11T15:21:28.847Z,-142.93
2017-12-11T15:24:03.362Z,-142.93
2017-12-11T15:26:37.438Z,-142.93
2017-12-11T15:29:11.965Z,-142.93
2017-12-11T15:31:46.453Z,-142.93
2017-12-11T15:34:21.013Z,-142.93
2017-12-11T15:36:54.930Z,-142.93
2017-12-11T15:39:30.282Z,-142.93
2017-12-11T15:42:04.863Z,-142.93
2017-12-11T15:47:18.595Z,-142.93
2017-12-11T15:49:53.204Z,-142.93
2017-12-11T15:52:27.859Z,-142.93
2017-12-11T15:57:43.578Z,-142.93
2017-12-11T16:00:17.641Z,-142.93
2017-12-11T16:02:51.883Z,-142.93
2017-12-11T16:05:26.398Z,-142.93
2017-12-11T16:08:00.842Z,-142.93
2017-12-11T16:10:35.198Z,-142.93
2017-12-11T16:13:11.330Z,-142.93
2017-12-11T16:15:46.549Z,-142.93
2017-12-11T16:18:21.890Z,-142.93
2017-12-11T16:20:56.523Z,-142.93
2017-12-11T16:23:31.156Z,-142.93
2017-12-11T16:26:05.563Z,-142.93
2017-12-11T16:28:40.189Z,-142.93
2017-12-11T16:31:14.726Z,-142.93
2017-12-11T16:33:49.099Z,-142.93
2017-12-11T16:36:24.046Z,-142.93
2017-12-11T16:38:58.350Z,-142.93
2017-12-11T16:41:32.802Z,-142.93
2017-12-11T16:44:06.985Z,-142.93
2017-12-11T16:46:41.382Z,-142.93
2017-12-11T16:49:15.919Z,-142.93
2017-12-11T16:51:49.998Z,-142.93
2017-12-11T16:54:24.654Z,-142.93
2017-12-11T16:56:59.170Z,-142.93
2017-12-11T16:59:33.752Z,-142.93
2017-12-11T17:02:08.153Z,-142.93
2017-12-11T17:04:42.600Z,-142.93
2017-12-11T17:07:16.508Z,-142.93
2017-12-11T17:09:51.034Z,-142.93
2017-12-11T17:12:25.505Z,-142.93
2017-12-11T17:14:59.936Z,-142.93
2017-12-11T17:17:34.350Z,-142.93
2017-12-11T17:20:08.892Z,-142.93
2017-12-11T17:22:44.229Z,-142.93
2017-12-11T17:25:19.010Z,-142.93
2017-12-11T17:27:53.657Z,-142.93
2017-12-11T17:30:28.085Z,-142.93
2017-12-11T17:33:02.581Z,-142.93
2017-12-11T17:35:37.106Z,-142.93
2017-12-11T17:38:11.611Z,-142.93
2017-12-11T17:40:46.225Z,-119.06
2017-12-11T17:43:20.702Z,10.57
2017-12-11T17:45:55.076Z,10.55
2017-12-11T17:48:29.638Z,10.58
2017-12-11T17:51:04.370Z,10.62
2017-12-11T17:53:39.554Z,10.62
2017-12-11T17:56:13.922Z,10.61
2017-12-11T17:58:48.379Z,10.62
2017-12-11T18:01:22.722Z,10.62
2017-12-11T18:03:57.270Z,-142.93
2017-12-11T18:06:31.776Z,-142.93
2017-12-11T18:09:05.635Z,-142.93
2017-12-11T18:11:40.158Z,-142.93
2017-12-11T18:14:15.634Z,-142.93
2017-12-11T18:16:51.214Z,-142.93
2017-12-11T18:19:25.793Z,-142.93
2017-12-11T18:22:00.218Z,-142.93
2017-12-11T18:24:34.771Z,-142.93
2017-12-11T18:27:09.141Z,-142.93
2017-12-11T18:29:43.910Z,-142.93
2017-12-11T18:32:18.462Z,-142.93
2017-12-11T18:34:53.204Z,-142.93
2017-12-11T18:37:27.682Z,-142.93
2017-12-11T18:40:04.244Z,-142.93
2017-12-11T18:42:40.094Z,-142.93
2017-12-11T18:45:14.490Z,-142.93
2017-12-11T18:47:49.003Z,-142.93
2017-12-11T18:50:24.103Z,-142.93
2017-12-11T18:52:58.629Z,-142.93
2017-12-11T18:55:33.030Z,-142.93
2017-12-11T18:58:07.570Z,-142.93
2017-12-11T19:00:42.930Z,-142.93
2017-12-11T19:03:17.550Z,-142.93
2017-12-11T19:05:51.938Z,-142.93
2017-12-11T19:08:27.013Z,-142.93
2017-12-11T19:11:01.662Z,-142.93
2017-12-11T19:13:36.750Z,-142.93
2017-12-11T19:16:12.037Z,-142.93
2017-12-11T19:18:46.602Z,-142.93
2017-12-11T19:21:20.997Z,-142.93
2017-12-11T19:23:55.948Z,-142.93
2017-12-11T19:26:30.818Z,-142.93
2017-12-11T19:29:05.250Z,-142.93
2017-12-11T19:31:39.602Z,-142.93
2017-12-11T19:34:14.144Z,-142.93
2017-12-11T19:36:48.547Z,-142.93
2017-12-11T19:39:23.094Z,-142.93
2017-12-11T19:41:57.822Z,-142.93
2017-12-11T19:44:32.245Z,-142.93
2017-12-11T19:47:06.678Z,-142.93
2017-12-11T19:49:41.104Z,-142.93
2017-12-11T19:52:15.480Z,-142.93
2017-12-11T19:54:49.765Z,-142.93
2017-12-11T19:57:24.436Z,-142.93
2017-12-11T19:59:58.871Z,-142.93
2017-12-11T20:02:33.983Z,-142.93
2017-12-11T20:05:15.082Z,-142.93
2017-12-11T20:07:49.666Z,-142.93
2017-12-11T20:10:24.767Z,-142.93
2017-12-11T20:12:59.627Z,-142.93
2017-12-11T20:15:34.071Z,-142.93
2017-12-11T20:18:08.717Z,-142.93
2017-12-11T20:20:43.098Z,-142.93
2017-12-11T20:23:17.477Z,-142.93
2017-12-11T20:25:51.891Z,-142.93
2017-12-11T20:28:26.397Z,-142.93
2017-12-11T20:31:00.809Z,-142.93
2017-12-11T20:33:35.210Z,-142.93
2017-12-11T20:36:09.718Z,-142.93
2017-12-11T20:38:44.242Z,-142.93
2017-12-11T20:41:18.770Z,-142.93
2017-12-11T20:43:53.348Z,-142.93
2017-12-11T20:46:27.737Z,-142.93
2017-12-11T20:49:02.500Z,-142.93
2017-12-11T20:51:37.058Z,-142.93
2017-12-11T20:54:11.715Z,-142.93
2017-12-11T20:56:45.844Z,-142.93
2017-12-11T20:59:20.437Z,-142.93
2017-12-11T21:01:54.907Z,-142.93
2017-12-11T21:04:29.249Z,-142.93
2017-12-11T21:07:05.304Z,-142.93
2017-12-11T21:09:40.351Z,-142.93
2017-12-11T21:12:15.607Z,-142.93
2017-12-11T21:14:49.983Z,-142.93
2017-12-11T21:17:24.310Z,-142.93
2017-12-11T21:19:58.878Z,-142.93
2017-12-11T21:22:33.318Z,-142.93
2017-12-11T21:25:13.743Z,-142.93
2017-12-11T21:27:48.326Z,-142.93
2017-12-11T21:30:22.750Z,-142.93
2017-12-11T21:32:57.223Z,-142.93
2017-12-11T21:35:31.604Z,-142.93
2017-12-11T21:38:07.051Z,-142.93
2017-12-11T21:40:41.394Z,-142.93
2017-12-11T21:43:16.062Z,-142.93
2017-12-11T21:45:50.502Z,-142.93
2017-12-11T21:48:25.144Z,-142.93
2017-12-11T21:50:59.742Z,-142.93
2017-12-11T21:53:34.355Z,-142.93
2017-12-11T21:56:09.017Z,-142.93
2017-12-11T21:58:43.438Z,-142.93
2017-12-11T22:01:17.848Z,-142.93
2017-12-11T22:03:52.398Z,-142.93
2017-12-11T22:06:26.796Z,-142.93
2017-12-11T22:09:01.850Z,-142.93
2017-12-11T22:11:36.429Z,-142.93
2017-12-11T22:14:11.438Z,-142.93
2017-12-11T22:16:45.742Z,-142.93
2017-12-11T22:19:20.123Z,-142.93
2017-12-11T22:21:54.582Z,-142.93
2017-12-11T22:24:29.102Z,-142.93
2017-12-11T22:27:03.559Z,-142.93
2017-12-11T22:29:38.049Z,-142.93
2017-12-11T22:32:12.566Z,-142.93
2017-12-11T22:34:47.187Z,-142.93
2017-12-11T22:37:21.714Z,-142.93
2017-12-11T22:39:56.154Z,-142.93
2017-12-11T22:42:30.584Z,-142.93
2017-12-11T22:45:13.686Z,-142.93
2017-12-11T22:47:48.186Z,-142.93
2017-12-11T22:50:22.598Z,-142.93
2017-12-11T22:52:57.160Z,-142.93
2017-12-11T22:55:31.538Z,-142.93
2017-12-11T22:58:06.066Z,-142.93
2017-12-11T23:00:40.484Z,-142.93
2017-12-11T23:03:15.875Z,-142.93
2017-12-11T23:05:50.490Z,-142.93
2017-12-11T23:08:25.003Z,-142.93
2017-12-11T23:11:00.050Z,-142.93
2017-12-11T23:13:34.580Z,-142.93
2017-12-11T23:16:09.051Z,-142.93
2017-12-11T23:18:43.561Z,-142.93
2017-12-11T23:21:18.100Z,-142.93
2017-12-11T23:23:52.722Z,-142.93
2017-12-11T23:26:27.214Z,-142.93
2017-12-11T23:29:01.717Z,-142.93
2017-12-11T23:31:36.171Z,-142.93
2017-12-11T23:34:10.626Z,-142.93
2017-12-11T23:36:45.081Z,-142.93
2017-12-11T23:39:19.594Z,-142.93
2017-12-11T23:41:54.383Z,-142.93
2017-12-11T23:44:29.398Z,-142.93
2017-12-11T23:47:04.255Z,-142.93
2017-12-11T23:49:38.745Z,-142.93
2017-12-11T23:52:13.042Z,-142.93
2017-12-11T23:54:47.530Z,-142.93
2017-12-11T23:57:22.303Z,-142.93
2017-12-11T23:59:57.068Z,-142.93
